sensor_id;sensor_type;location;lat;lon;timestamp;P1;durP1;ratioP1;P2;durP2;ratioP2
53281;SDS011;39167;52.794;6.892;2023-04-06T00:01:49;7.45;;;5.15;;
53281;SDS011;39167;52.794;6.892;2023-04-06T00:04:15;6.40;;;4.68;;
53281;SDS011;39167;52.794;6.892;2023-04-06T00:06:41;8.70;;;4.90;;
53281;SDS011;39167;52.794;6.892;2023-04-06T00:09:07;9.65;;;5.28;;
53281;SDS011;39167;52.794;6.892;2023-04-06T00:11:33;8.20;;;5.28;;
53281;SDS011;39167;52.794;6.892;2023-04-06T00:13:59;7.78;;;4.65;;
53281;SDS011;39167;52.794;6.892;2023-04-06T00:16:25;7.95;;;4.80;;
53281;SDS011;39167;52.794;6.892;2023-04-06T00:18:51;9.48;;;5.30;;
53281;SDS011;39167;52.794;6.892;2023-04-06T00:21:17;7.20;;;5.00;;
53281;SDS011;39167;52.794;6.892;2023-04-06T00:23:42;8.10;;;4.63;;
53281;SDS011;39167;52.794;6.892;2023-04-06T00:26:08;9.40;;;5.28;;
53281;SDS011;39167;52.794;6.892;2023-04-06T00:28:36;7.45;;;4.65;;
53281;SDS011;39167;52.794;6.892;2023-04-06T00:31:02;9.60;;;4.93;;
53281;SDS011;39167;52.794;6.892;2023-04-06T00:33:28;7.65;;;5.18;;
53281;SDS011;39167;52.794;6.892;2023-04-06T00:35:53;11.50;;;5.18;;
53281;SDS011;39167;52.794;6.892;2023-04-06T00:38:19;8.88;;;5.38;;
53281;SDS011;39167;52.794;6.892;2023-04-06T00:40:45;7.75;;;5.22;;
53281;SDS011;39167;52.794;6.892;2023-04-06T00:43:11;8.50;;;4.82;;
53281;SDS011;39167;52.794;6.892;2023-04-06T00:45:38;8.65;;;5.47;;
53281;SDS011;39167;52.794;6.892;2023-04-06T00:48:05;8.25;;;5.07;;
53281;SDS011;39167;52.794;6.892;2023-04-06T00:50:32;15.25;;;5.82;;
53281;SDS011;39167;52.794;6.892;2023-04-06T00:52:58;9.75;;;5.47;;
53281;SDS011;39167;52.794;6.892;2023-04-06T00:55:28;9.13;;;4.80;;
53281;SDS011;39167;52.794;6.892;2023-04-06T00:57:54;9.90;;;5.30;;
53281;SDS011;39167;52.794;6.892;2023-04-06T01:00:23;10.43;;;5.50;;
53281;SDS011;39167;52.794;6.892;2023-04-06T01:02:49;10.10;;;5.13;;
53281;SDS011;39167;52.794;6.892;2023-04-06T01:05:15;7.18;;;4.70;;
53281;SDS011;39167;52.794;6.892;2023-04-06T01:07:41;9.38;;;5.15;;
53281;SDS011;39167;52.794;6.892;2023-04-06T01:10:07;7.22;;;4.88;;
53281;SDS011;39167;52.794;6.892;2023-04-06T01:12:33;7.28;;;5.20;;
53281;SDS011;39167;52.794;6.892;2023-04-06T01:14:59;8.40;;;5.13;;
53281;SDS011;39167;52.794;6.892;2023-04-06T01:17:25;8.90;;;5.05;;
53281;SDS011;39167;52.794;6.892;2023-04-06T01:19:50;8.55;;;5.53;;
53281;SDS011;39167;52.794;6.892;2023-04-06T01:22:18;12.63;;;5.18;;
53281;SDS011;39167;52.794;6.892;2023-04-06T01:24:44;8.57;;;5.07;;
53281;SDS011;39167;52.794;6.892;2023-04-06T01:27:11;8.27;;;5.10;;
53281;SDS011;39167;52.794;6.892;2023-04-06T01:29:37;9.25;;;5.50;;
53281;SDS011;39167;52.794;6.892;2023-04-06T01:32:06;8.55;;;4.85;;
53281;SDS011;39167;52.794;6.892;2023-04-06T01:34:32;10.57;;;5.13;;
53281;SDS011;39167;52.794;6.892;2023-04-06T01:36:58;6.15;;;4.40;;
53281;SDS011;39167;52.794;6.892;2023-04-06T01:39:24;8.38;;;4.80;;
53281;SDS011;39167;52.794;6.892;2023-04-06T01:41:51;8.65;;;5.20;;
53281;SDS011;39167;52.794;6.892;2023-04-06T01:44:17;8.95;;;5.78;;
53281;SDS011;39167;52.794;6.892;2023-04-06T01:46:44;6.57;;;4.80;;
53281;SDS011;39167;52.794;6.892;2023-04-06T01:49:10;9.95;;;5.60;;
53281;SDS011;39167;52.794;6.892;2023-04-06T01:51:37;8.60;;;5.18;;
53281;SDS011;39167;52.794;6.892;2023-04-06T01:54:02;8.55;;;5.50;;
53281;SDS011;39167;52.794;6.892;2023-04-06T01:56:28;8.73;;;5.75;;
53281;SDS011;39167;52.794;6.892;2023-04-06T01:58:54;7.40;;;5.22;;
53281;SDS011;39167;52.794;6.892;2023-04-06T02:01:20;7.82;;;5.20;;
53281;SDS011;39167;52.794;6.892;2023-04-06T02:03:46;8.57;;;5.53;;
53281;SDS011;39167;52.794;6.892;2023-04-06T02:06:12;11.38;;;5.45;;
53281;SDS011;39167;52.794;6.892;2023-04-06T02:08:38;8.55;;;5.13;;
53281;SDS011;39167;52.794;6.892;2023-04-06T02:11:03;7.32;;;4.95;;
53281;SDS011;39167;52.794;6.892;2023-04-06T02:13:29;11.20;;;5.68;;
53281;SDS011;39167;52.794;6.892;2023-04-06T02:15:55;7.88;;;5.38;;
53281;SDS011;39167;52.794;6.892;2023-04-06T02:18:22;8.98;;;5.32;;
53281;SDS011;39167;52.794;6.892;2023-04-06T02:20:47;8.93;;;6.07;;
53281;SDS011;39167;52.794;6.892;2023-04-06T02:23:13;8.32;;;5.70;;
53281;SDS011;39167;52.794;6.892;2023-04-06T02:25:39;9.52;;;5.95;;
53281;SDS011;39167;52.794;6.892;2023-04-06T02:28:06;9.10;;;5.38;;
53281;SDS011;39167;52.794;6.892;2023-04-06T02:30:32;10.23;;;6.10;;
53281;SDS011;39167;52.794;6.892;2023-04-06T02:32:59;11.40;;;5.97;;
53281;SDS011;39167;52.794;6.892;2023-04-06T02:35:25;9.70;;;5.70;;
53281;SDS011;39167;52.794;6.892;2023-04-06T02:37:52;12.95;;;5.75;;
53281;SDS011;39167;52.794;6.892;2023-04-06T02:40:18;9.90;;;5.70;;
53281;SDS011;39167;52.794;6.892;2023-04-06T02:42:44;8.35;;;5.60;;
53281;SDS011;39167;52.794;6.892;2023-04-06T02:45:10;7.40;;;5.40;;
53281;SDS011;39167;52.794;6.892;2023-04-06T02:47:36;8.35;;;5.65;;
53281;SDS011;39167;52.794;6.892;2023-04-06T02:50:01;11.77;;;5.95;;
53281;SDS011;39167;52.794;6.892;2023-04-06T02:52:27;8.80;;;5.60;;
53281;SDS011;39167;52.794;6.892;2023-04-06T02:54:53;10.93;;;6.00;;
53281;SDS011;39167;52.794;6.892;2023-04-06T02:57:19;11.73;;;5.97;;
53281;SDS011;39167;52.794;6.892;2023-04-06T02:59:48;9.57;;;5.65;;
53281;SDS011;39167;52.794;6.892;2023-04-06T03:02:14;8.73;;;6.15;;
53281;SDS011;39167;52.794;6.892;2023-04-06T03:04:40;9.32;;;5.97;;
53281;SDS011;39167;52.794;6.892;2023-04-06T03:07:07;8.88;;;5.82;;
53281;SDS011;39167;52.794;6.892;2023-04-06T03:09:33;10.98;;;6.22;;
53281;SDS011;39167;52.794;6.892;2023-04-06T03:11:58;8.25;;;5.40;;
53281;SDS011;39167;52.794;6.892;2023-04-06T03:14:25;10.65;;;6.05;;
53281;SDS011;39167;52.794;6.892;2023-04-06T03:16:50;9.07;;;5.65;;
53281;SDS011;39167;52.794;6.892;2023-04-06T03:19:16;9.73;;;7.20;;
53281;SDS011;39167;52.794;6.892;2023-04-06T03:21:42;9.23;;;6.25;;
53281;SDS011;39167;52.794;6.892;2023-04-06T03:24:07;10.15;;;6.30;;
53281;SDS011;39167;52.794;6.892;2023-04-06T03:26:33;9.73;;;5.65;;
53281;SDS011;39167;52.794;6.892;2023-04-06T03:28:59;10.98;;;6.32;;
53281;SDS011;39167;52.794;6.892;2023-04-06T03:31:25;9.68;;;5.88;;
53281;SDS011;39167;52.794;6.892;2023-04-06T03:33:52;10.73;;;6.07;;
53281;SDS011;39167;52.794;6.892;2023-04-06T03:36:17;8.98;;;6.40;;
53281;SDS011;39167;52.794;6.892;2023-04-06T03:38:43;11.52;;;6.65;;
53281;SDS011;39167;52.794;6.892;2023-04-06T03:41:09;12.18;;;6.32;;
53281;SDS011;39167;52.794;6.892;2023-04-06T03:43:35;15.23;;;7.13;;
53281;SDS011;39167;52.794;6.892;2023-04-06T03:46:01;10.50;;;6.35;;
53281;SDS011;39167;52.794;6.892;2023-04-06T03:48:27;10.60;;;6.05;;
53281;SDS011;39167;52.794;6.892;2023-04-06T03:50:52;10.85;;;6.75;;
53281;SDS011;39167;52.794;6.892;2023-04-06T03:53:18;11.20;;;7.53;;
53281;SDS011;39167;52.794;6.892;2023-04-06T03:55:44;9.82;;;6.38;;
53281;SDS011;39167;52.794;6.892;2023-04-06T03:58:10;15.00;;;7.00;;
53281;SDS011;39167;52.794;6.892;2023-04-06T04:00:36;15.15;;;7.05;;
53281;SDS011;39167;52.794;6.892;2023-04-06T04:03:01;11.63;;;6.78;;
53281;SDS011;39167;52.794;6.892;2023-04-06T04:05:27;8.52;;;6.28;;
53281;SDS011;39167;52.794;6.892;2023-04-06T04:07:53;11.50;;;6.57;;
53281;SDS011;39167;52.794;6.892;2023-04-06T04:10:19;10.93;;;6.45;;
53281;SDS011;39167;52.794;6.892;2023-04-06T04:12:45;11.80;;;7.50;;
53281;SDS011;39167;52.794;6.892;2023-04-06T04:15:10;12.48;;;6.90;;
53281;SDS011;39167;52.794;6.892;2023-04-06T04:17:36;11.05;;;6.90;;
53281;SDS011;39167;52.794;6.892;2023-04-06T04:20:02;10.57;;;7.40;;
53281;SDS011;39167;52.794;6.892;2023-04-06T04:22:28;11.75;;;7.30;;
53281;SDS011;39167;52.794;6.892;2023-04-06T04:24:54;10.32;;;6.38;;
53281;SDS011;39167;52.794;6.892;2023-04-06T04:27:19;15.63;;;7.43;;
53281;SDS011;39167;52.794;6.892;2023-04-06T04:29:45;11.18;;;7.35;;
53281;SDS011;39167;52.794;6.892;2023-04-06T04:32:11;11.23;;;7.28;;
53281;SDS011;39167;52.794;6.892;2023-04-06T04:34:37;10.90;;;7.25;;
53281;SDS011;39167;52.794;6.892;2023-04-06T04:37:05;15.07;;;8.18;;
53281;SDS011;39167;52.794;6.892;2023-04-06T04:39:31;13.82;;;7.03;;
53281;SDS011;39167;52.794;6.892;2023-04-06T04:41:57;13.98;;;7.78;;
53281;SDS011;39167;52.794;6.892;2023-04-06T04:44:23;11.88;;;7.18;;
53281;SDS011;39167;52.794;6.892;2023-04-06T04:46:49;11.50;;;7.47;;
53281;SDS011;39167;52.794;6.892;2023-04-06T04:49:15;12.02;;;7.65;;
53281;SDS011;39167;52.794;6.892;2023-04-06T04:51:40;10.70;;;7.70;;
53281;SDS011;39167;52.794;6.892;2023-04-06T04:54:06;15.27;;;8.73;;
53281;SDS011;39167;52.794;6.892;2023-04-06T04:56:32;11.70;;;8.10;;
53281;SDS011;39167;52.794;6.892;2023-04-06T04:58:58;11.50;;;8.32;;
53281;SDS011;39167;52.794;6.892;2023-04-06T05:01:23;11.23;;;8.20;;
53281;SDS011;39167;52.794;6.892;2023-04-06T05:03:49;16.40;;;9.10;;
53281;SDS011;39167;52.794;6.892;2023-04-06T05:06:15;17.08;;;9.10;;
53281;SDS011;39167;52.794;6.892;2023-04-06T05:08:41;15.50;;;8.75;;
53281;SDS011;39167;52.794;6.892;2023-04-06T05:11:07;13.88;;;8.23;;
53281;SDS011;39167;52.794;6.892;2023-04-06T05:13:33;13.13;;;8.05;;
53281;SDS011;39167;52.794;6.892;2023-04-06T05:15:59;13.93;;;8.55;;
53281;SDS011;39167;52.794;6.892;2023-04-06T05:18:25;13.00;;;8.52;;
53281;SDS011;39167;52.794;6.892;2023-04-06T05:20:51;13.05;;;7.60;;
53281;SDS011;39167;52.794;6.892;2023-04-06T05:23:17;15.68;;;8.82;;
53281;SDS011;39167;52.794;6.892;2023-04-06T05:25:43;13.35;;;8.88;;
53281;SDS011;39167;52.794;6.892;2023-04-06T05:28:08;15.52;;;9.07;;
53281;SDS011;39167;52.794;6.892;2023-04-06T05:30:34;16.65;;;9.38;;
53281;SDS011;39167;52.794;6.892;2023-04-06T05:33:03;15.13;;;8.55;;
53281;SDS011;39167;52.794;6.892;2023-04-06T05:35:29;17.20;;;8.93;;
53281;SDS011;39167;52.794;6.892;2023-04-06T05:37:55;14.73;;;8.80;;
53281;SDS011;39167;52.794;6.892;2023-04-06T05:40:21;17.50;;;9.30;;
53281;SDS011;39167;52.794;6.892;2023-04-06T05:42:46;16.40;;;9.20;;
53281;SDS011;39167;52.794;6.892;2023-04-06T05:45:14;14.95;;;9.23;;
53281;SDS011;39167;52.794;6.892;2023-04-06T05:47:42;15.45;;;9.13;;
53281;SDS011;39167;52.794;6.892;2023-04-06T05:50:11;17.13;;;9.32;;
53281;SDS011;39167;52.794;6.892;2023-04-06T05:52:37;14.95;;;8.30;;
53281;SDS011;39167;52.794;6.892;2023-04-06T05:55:03;19.10;;;10.13;;
53281;SDS011;39167;52.794;6.892;2023-04-06T05:57:29;20.25;;;9.23;;
53281;SDS011;39167;52.794;6.892;2023-04-06T05:59:55;19.88;;;9.13;;
53281;SDS011;39167;52.794;6.892;2023-04-06T06:02:21;17.05;;;9.32;;
53281;SDS011;39167;52.794;6.892;2023-04-06T06:04:47;15.88;;;9.90;;
53281;SDS011;39167;52.794;6.892;2023-04-06T06:07:13;16.13;;;9.43;;
53281;SDS011;39167;52.794;6.892;2023-04-06T06:09:40;14.10;;;9.23;;
53281;SDS011;39167;52.794;6.892;2023-04-06T06:12:05;15.98;;;10.02;;
53281;SDS011;39167;52.794;6.892;2023-04-06T06:14:31;17.85;;;9.75;;
53281;SDS011;39167;52.794;6.892;2023-04-06T06:16:57;18.08;;;10.27;;
53281;SDS011;39167;52.794;6.892;2023-04-06T06:19:23;25.50;;;9.90;;
53281;SDS011;39167;52.794;6.892;2023-04-06T06:21:49;19.02;;;9.90;;
53281;SDS011;39167;52.794;6.892;2023-04-06T06:24:15;17.95;;;10.13;;
53281;SDS011;39167;52.794;6.892;2023-04-06T06:26:40;16.58;;;9.57;;
53281;SDS011;39167;52.794;6.892;2023-04-06T06:29:06;15.27;;;9.00;;
53281;SDS011;39167;52.794;6.892;2023-04-06T06:31:32;15.18;;;9.55;;
53281;SDS011;39167;52.794;6.892;2023-04-06T06:33:58;18.08;;;9.82;;
53281;SDS011;39167;52.794;6.892;2023-04-06T06:36:24;17.67;;;8.90;;
53281;SDS011;39167;52.794;6.892;2023-04-06T06:38:50;21.27;;;9.85;;
53281;SDS011;39167;52.794;6.892;2023-04-06T06:41:16;13.75;;;9.60;;
53281;SDS011;39167;52.794;6.892;2023-04-06T06:43:42;15.93;;;10.35;;
53281;SDS011;39167;52.794;6.892;2023-04-06T06:46:08;14.30;;;9.40;;
53281;SDS011;39167;52.794;6.892;2023-04-06T06:48:34;14.55;;;9.45;;
53281;SDS011;39167;52.794;6.892;2023-04-06T06:51:00;14.65;;;9.05;;
53281;SDS011;39167;52.794;6.892;2023-04-06T06:53:26;17.13;;;10.40;;
53281;SDS011;39167;52.794;6.892;2023-04-06T06:55:52;14.27;;;9.80;;
53281;SDS011;39167;52.794;6.892;2023-04-06T06:58:18;17.58;;;9.50;;
53281;SDS011;39167;52.794;6.892;2023-04-06T07:00:45;15.20;;;9.65;;
53281;SDS011;39167;52.794;6.892;2023-04-06T07:03:11;19.17;;;10.77;;
53281;SDS011;39167;52.794;6.892;2023-04-06T07:05:37;20.17;;;10.48;;
53281;SDS011;39167;52.794;6.892;2023-04-06T07:08:02;17.90;;;10.00;;
53281;SDS011;39167;52.794;6.892;2023-04-06T07:10:28;17.23;;;10.35;;
53281;SDS011;39167;52.794;6.892;2023-04-06T07:12:54;15.88;;;10.13;;
53281;SDS011;39167;52.794;6.892;2023-04-06T07:15:20;17.35;;;11.13;;
53281;SDS011;39167;52.794;6.892;2023-04-06T07:17:46;17.50;;;9.90;;
53281;SDS011;39167;52.794;6.892;2023-04-06T07:20:12;14.60;;;10.18;;
53281;SDS011;39167;52.794;6.892;2023-04-06T07:22:38;17.10;;;10.20;;
53281;SDS011;39167;52.794;6.892;2023-04-06T07:25:05;15.77;;;10.38;;
53281;SDS011;39167;52.794;6.892;2023-04-06T07:27:31;16.88;;;11.20;;
53281;SDS011;39167;52.794;6.892;2023-04-06T07:29:57;17.27;;;10.73;;
53281;SDS011;39167;52.794;6.892;2023-04-06T07:32:23;17.13;;;10.02;;
53281;SDS011;39167;52.794;6.892;2023-04-06T07:34:48;22.38;;;10.95;;
53281;SDS011;39167;52.794;6.892;2023-04-06T07:37:14;16.42;;;9.73;;
53281;SDS011;39167;52.794;6.892;2023-04-06T07:39:40;15.38;;;10.27;;
53281;SDS011;39167;52.794;6.892;2023-04-06T07:42:06;18.50;;;9.63;;
53281;SDS011;39167;52.794;6.892;2023-04-06T07:44:31;15.88;;;10.40;;
53281;SDS011;39167;52.794;6.892;2023-04-06T07:46:57;18.95;;;10.63;;
53281;SDS011;39167;52.794;6.892;2023-04-06T07:49:23;19.52;;;10.23;;
53281;SDS011;39167;52.794;6.892;2023-04-06T07:51:49;16.35;;;10.48;;
53281;SDS011;39167;52.794;6.892;2023-04-06T07:54:15;20.48;;;10.68;;
53281;SDS011;39167;52.794;6.892;2023-04-06T07:56:40;21.45;;;10.48;;
53281;SDS011;39167;52.794;6.892;2023-04-06T07:59:06;24.63;;;10.98;;
53281;SDS011;39167;52.794;6.892;2023-04-06T08:01:32;17.02;;;10.85;;
53281;SDS011;39167;52.794;6.892;2023-04-06T08:03:58;21.90;;;11.57;;
53281;SDS011;39167;52.794;6.892;2023-04-06T08:06:25;20.95;;;11.35;;
53281;SDS011;39167;52.794;6.892;2023-04-06T08:08:51;21.83;;;10.75;;
53281;SDS011;39167;52.794;6.892;2023-04-06T08:11:17;20.45;;;11.23;;
53281;SDS011;39167;52.794;6.892;2023-04-06T08:13:43;16.95;;;10.68;;
53281;SDS011;39167;52.794;6.892;2023-04-06T08:16:09;18.77;;;11.02;;
53281;SDS011;39167;52.794;6.892;2023-04-06T08:18:34;21.55;;;10.60;;
53281;SDS011;39167;52.794;6.892;2023-04-06T08:21:00;17.35;;;10.80;;
53281;SDS011;39167;52.794;6.892;2023-04-06T08:23:26;19.60;;;10.98;;
53281;SDS011;39167;52.794;6.892;2023-04-06T08:25:51;20.58;;;10.55;;
53281;SDS011;39167;52.794;6.892;2023-04-06T08:28:21;17.95;;;10.57;;
53281;SDS011;39167;52.794;6.892;2023-04-06T08:30:46;14.10;;;10.10;;
53281;SDS011;39167;52.794;6.892;2023-04-06T08:33:12;19.80;;;11.20;;
53281;SDS011;39167;52.794;6.892;2023-04-06T08:35:38;14.95;;;9.85;;
53281;SDS011;39167;52.794;6.892;2023-04-06T08:38:04;18.73;;;10.60;;
53281;SDS011;39167;52.794;6.892;2023-04-06T08:40:35;17.27;;;11.52;;
53281;SDS011;39167;52.794;6.892;2023-04-06T08:43:06;17.60;;;10.57;;
53281;SDS011;39167;52.794;6.892;2023-04-06T08:45:34;21.40;;;11.10;;
53281;SDS011;39167;52.794;6.892;2023-04-06T08:48:00;15.30;;;9.65;;
53281;SDS011;39167;52.794;6.892;2023-04-06T08:50:29;17.70;;;10.60;;
53281;SDS011;39167;52.794;6.892;2023-04-06T08:52:55;19.70;;;11.10;;
53281;SDS011;39167;52.794;6.892;2023-04-06T08:55:22;21.27;;;11.75;;
53281;SDS011;39167;52.794;6.892;2023-04-06T08:57:48;16.17;;;10.45;;
53281;SDS011;39167;52.794;6.892;2023-04-06T09:00:14;19.63;;;10.57;;
53281;SDS011;39167;52.794;6.892;2023-04-06T09:02:41;18.27;;;10.57;;
53281;SDS011;39167;52.794;6.892;2023-04-06T09:05:08;17.52;;;10.93;;
53281;SDS011;39167;52.794;6.892;2023-04-06T09:07:35;20.42;;;10.93;;
53281;SDS011;39167;52.794;6.892;2023-04-06T09:10:02;22.02;;;11.25;;
53281;SDS011;39167;52.794;6.892;2023-04-06T09:12:32;15.82;;;10.77;;
53281;SDS011;39167;52.794;6.892;2023-04-06T09:14:58;18.98;;;10.25;;
53281;SDS011;39167;52.794;6.892;2023-04-06T09:17:26;22.17;;;11.25;;
53281;SDS011;39167;52.794;6.892;2023-04-06T09:19:57;15.93;;;10.73;;
53281;SDS011;39167;52.794;6.892;2023-04-06T09:22:24;18.55;;;10.88;;
53281;SDS011;39167;52.794;6.892;2023-04-06T09:24:52;16.05;;;10.30;;
53281;SDS011;39167;52.794;6.892;2023-04-06T09:27:32;23.13;;;11.05;;
53281;SDS011;39167;52.794;6.892;2023-04-06T09:30:08;20.15;;;11.15;;
53281;SDS011;39167;52.794;6.892;2023-04-06T09:32:45;18.83;;;11.32;;
53281;SDS011;39167;52.794;6.892;2023-04-06T09:35:15;18.48;;;11.32;;
53281;SDS011;39167;52.794;6.892;2023-04-06T09:37:44;18.23;;;11.25;;
53281;SDS011;39167;52.794;6.892;2023-04-06T09:40:11;18.10;;;10.68;;
53281;SDS011;39167;52.794;6.892;2023-04-06T09:42:39;16.80;;;10.93;;
53281;SDS011;39167;52.794;6.892;2023-04-06T09:45:06;18.55;;;11.40;;
53281;SDS011;39167;52.794;6.892;2023-04-06T09:47:33;19.50;;;12.13;;
53281;SDS011;39167;52.794;6.892;2023-04-06T09:50:02;18.60;;;11.38;;
53281;SDS011;39167;52.794;6.892;2023-04-06T09:52:47;26.55;;;12.93;;
53281;SDS011;39167;52.794;6.892;2023-04-06T09:55:30;19.40;;;12.77;;
53281;SDS011;39167;52.794;6.892;2023-04-06T09:58:05;27.10;;;13.35;;
53281;SDS011;39167;52.794;6.892;2023-04-06T10:00:32;23.27;;;13.48;;
53281;SDS011;39167;52.794;6.892;2023-04-06T10:03:21;24.33;;;13.43;;
53281;SDS011;39167;52.794;6.892;2023-04-06T10:05:55;20.10;;;13.13;;
53281;SDS011;39167;52.794;6.892;2023-04-06T10:08:26;21.00;;;12.38;;
53281;SDS011;39167;52.794;6.892;2023-04-06T10:10:53;20.48;;;13.18;;
53281;SDS011;39167;52.794;6.892;2023-04-06T10:13:19;20.33;;;13.57;;
53281;SDS011;39167;52.794;6.892;2023-04-06T10:15:45;20.50;;;13.50;;
53281;SDS011;39167;52.794;6.892;2023-04-06T10:18:14;22.23;;;13.63;;
53281;SDS011;39167;52.794;6.892;2023-04-06T10:20:55;24.70;;;13.88;;
53281;SDS011;39167;52.794;6.892;2023-04-06T10:23:36;25.15;;;14.60;;
53281;SDS011;39167;52.794;6.892;2023-04-06T10:26:11;22.60;;;15.02;;
53281;SDS011;39167;52.794;6.892;2023-04-06T10:28:41;20.60;;;13.55;;
53281;SDS011;39167;52.794;6.892;2023-04-06T10:31:11;25.30;;;14.27;;
53281;SDS011;39167;52.794;6.892;2023-04-06T10:33:37;25.33;;;14.77;;
53281;SDS011;39167;52.794;6.892;2023-04-06T10:38:36;20.92;;;14.98;;
53281;SDS011;39167;52.794;6.892;2023-04-06T10:41:06;24.00;;;15.18;;
53281;SDS011;39167;52.794;6.892;2023-04-06T10:43:34;26.25;;;15.27;;
53281;SDS011;39167;52.794;6.892;2023-04-06T10:46:04;24.05;;;15.93;;
53281;SDS011;39167;52.794;6.892;2023-04-06T10:48:39;25.90;;;15.77;;
53281;SDS011;39167;52.794;6.892;2023-04-06T10:51:12;25.20;;;15.48;;
53281;SDS011;39167;52.794;6.892;2023-04-06T10:53:43;24.73;;;15.57;;
53281;SDS011;39167;52.794;6.892;2023-04-06T10:56:12;26.10;;;15.85;;
53281;SDS011;39167;52.794;6.892;2023-04-06T11:01:15;24.27;;;15.32;;
53281;SDS011;39167;52.794;6.892;2023-04-06T11:03:42;30.85;;;17.30;;
53281;SDS011;39167;52.794;6.892;2023-04-06T11:06:17;24.33;;;16.13;;
53281;SDS011;39167;52.794;6.892;2023-04-06T11:08:44;30.73;;;18.02;;
53281;SDS011;39167;52.794;6.892;2023-04-06T11:11:11;24.75;;;17.73;;
53281;SDS011;39167;52.794;6.892;2023-04-06T11:16:18;30.92;;;18.23;;
53281;SDS011;39167;52.794;6.892;2023-04-06T11:18:53;28.33;;;17.65;;
53281;SDS011;39167;52.794;6.892;2023-04-06T11:21:20;28.27;;;18.40;;
53281;SDS011;39167;52.794;6.892;2023-04-06T11:24:04;26.67;;;17.73;;
53281;SDS011;39167;52.794;6.892;2023-04-06T11:26:31;27.08;;;17.27;;
53281;SDS011;39167;52.794;6.892;2023-04-06T11:28:56;26.88;;;16.75;;
53281;SDS011;39167;52.794;6.892;2023-04-06T11:31:25;29.92;;;17.42;;
53281;SDS011;39167;52.794;6.892;2023-04-06T11:33:57;28.40;;;17.90;;
53281;SDS011;39167;52.794;6.892;2023-04-06T11:36:23;30.88;;;18.60;;
53281;SDS011;39167;52.794;6.892;2023-04-06T11:38:56;30.55;;;18.60;;
53281;SDS011;39167;52.794;6.892;2023-04-06T11:41:23;27.95;;;17.42;;
53281;SDS011;39167;52.794;6.892;2023-04-06T11:43:50;27.42;;;18.10;;
53281;SDS011;39167;52.794;6.892;2023-04-06T11:46:19;25.15;;;17.45;;
53281;SDS011;39167;52.794;6.892;2023-04-06T11:48:45;29.02;;;17.40;;
53281;SDS011;39167;52.794;6.892;2023-04-06T11:51:11;29.05;;;18.48;;
53281;SDS011;39167;52.794;6.892;2023-04-06T11:53:43;29.60;;;19.02;;
53281;SDS011;39167;52.794;6.892;2023-04-06T11:56:11;30.27;;;18.10;;
53281;SDS011;39167;52.794;6.892;2023-04-06T11:58:36;31.13;;;18.38;;
53281;SDS011;39167;52.794;6.892;2023-04-06T12:01:03;26.55;;;18.42;;
53281;SDS011;39167;52.794;6.892;2023-04-06T12:03:29;27.45;;;18.63;;
53281;SDS011;39167;52.794;6.892;2023-04-06T12:05:55;29.05;;;17.90;;
53281;SDS011;39167;52.794;6.892;2023-04-06T12:08:21;27.58;;;18.38;;
53281;SDS011;39167;52.794;6.892;2023-04-06T12:10:50;29.77;;;18.77;;
53281;SDS011;39167;52.794;6.892;2023-04-06T12:13:16;28.02;;;19.25;;
53281;SDS011;39167;52.794;6.892;2023-04-06T12:15:41;28.83;;;18.83;;
53281;SDS011;39167;52.794;6.892;2023-04-06T12:18:07;31.73;;;19.35;;
53281;SDS011;39167;52.794;6.892;2023-04-06T12:20:34;29.77;;;19.58;;
53281;SDS011;39167;52.794;6.892;2023-04-06T12:22:59;28.02;;;19.35;;
53281;SDS011;39167;52.794;6.892;2023-04-06T12:25:25;27.38;;;17.90;;
53281;SDS011;39167;52.794;6.892;2023-04-06T12:27:51;31.92;;;19.98;;
53281;SDS011;39167;52.794;6.892;2023-04-06T12:30:17;29.73;;;18.98;;
53281;SDS011;39167;52.794;6.892;2023-04-06T12:32:42;30.13;;;19.98;;
53281;SDS011;39167;52.794;6.892;2023-04-06T12:35:08;28.25;;;19.27;;
53281;SDS011;39167;52.794;6.892;2023-04-06T12:37:34;33.47;;;18.73;;
53281;SDS011;39167;52.794;6.892;2023-04-06T12:40:00;27.73;;;18.50;;
53281;SDS011;39167;52.794;6.892;2023-04-06T12:42:27;25.33;;;17.90;;
53281;SDS011;39167;52.794;6.892;2023-04-06T12:44:52;28.77;;;19.00;;
53281;SDS011;39167;52.794;6.892;2023-04-06T12:47:18;28.67;;;18.95;;
53281;SDS011;39167;52.794;6.892;2023-04-06T12:49:44;27.80;;;18.60;;
53281;SDS011;39167;52.794;6.892;2023-04-06T12:52:10;30.27;;;19.38;;
53281;SDS011;39167;52.794;6.892;2023-04-06T12:54:36;32.65;;;20.15;;
53281;SDS011;39167;52.794;6.892;2023-04-06T12:57:01;32.78;;;18.92;;
53281;SDS011;39167;52.794;6.892;2023-04-06T12:59:27;30.58;;;18.63;;
53281;SDS011;39167;52.794;6.892;2023-04-06T13:01:59;30.42;;;18.48;;
53281;SDS011;39167;52.794;6.892;2023-04-06T13:04:25;30.42;;;19.23;;
53281;SDS011;39167;52.794;6.892;2023-04-06T13:06:51;29.02;;;17.48;;
53281;SDS011;39167;52.794;6.892;2023-04-06T13:09:17;29.60;;;18.73;;
53281;SDS011;39167;52.794;6.892;2023-04-06T13:11:43;28.60;;;18.88;;
53281;SDS011;39167;52.794;6.892;2023-04-06T13:14:08;29.25;;;17.70;;
53281;SDS011;39167;52.794;6.892;2023-04-06T13:16:34;28.83;;;18.17;;
53281;SDS011;39167;52.794;6.892;2023-04-06T13:19:01;28.80;;;19.15;;
53281;SDS011;39167;52.794;6.892;2023-04-06T13:21:27;28.45;;;18.27;;
53281;SDS011;39167;52.794;6.892;2023-04-06T13:23:53;26.33;;;17.42;;
53281;SDS011;39167;52.794;6.892;2023-04-06T13:26:19;30.70;;;19.58;;
53281;SDS011;39167;52.794;6.892;2023-04-06T13:28:44;32.63;;;19.50;;
53281;SDS011;39167;52.794;6.892;2023-04-06T13:31:10;26.67;;;18.10;;
53281;SDS011;39167;52.794;6.892;2023-04-06T13:33:36;27.67;;;17.77;;
53281;SDS011;39167;52.794;6.892;2023-04-06T13:36:02;28.33;;;17.75;;
53281;SDS011;39167;52.794;6.892;2023-04-06T13:38:29;28.17;;;18.25;;
53281;SDS011;39167;52.794;6.892;2023-04-06T13:40:54;29.35;;;19.15;;
53281;SDS011;39167;52.794;6.892;2023-04-06T13:43:21;28.80;;;17.42;;
53281;SDS011;39167;52.794;6.892;2023-04-06T13:45:50;28.45;;;18.33;;
53281;SDS011;39167;52.794;6.892;2023-04-06T13:48:16;31.70;;;17.70;;
53281;SDS011;39167;52.794;6.892;2023-04-06T13:50:42;29.50;;;17.40;;
53281;SDS011;39167;52.794;6.892;2023-04-06T13:53:11;23.70;;;15.25;;
53281;SDS011;39167;52.794;6.892;2023-04-06T13:55:37;25.58;;;16.35;;
53281;SDS011;39167;52.794;6.892;2023-04-06T13:58:02;25.60;;;15.48;;
53281;SDS011;39167;52.794;6.892;2023-04-06T14:00:28;24.58;;;15.50;;
53281;SDS011;39167;52.794;6.892;2023-04-06T14:02:54;25.58;;;15.52;;
53281;SDS011;39167;52.794;6.892;2023-04-06T14:05:22;23.38;;;15.13;;
53281;SDS011;39167;52.794;6.892;2023-04-06T14:07:49;25.02;;;16.45;;
53281;SDS011;39167;52.794;6.892;2023-04-06T14:10:15;28.67;;;16.00;;
53281;SDS011;39167;52.794;6.892;2023-04-06T14:12:41;24.80;;;16.33;;
53281;SDS011;39167;52.794;6.892;2023-04-06T14:15:10;26.08;;;16.77;;
53281;SDS011;39167;52.794;6.892;2023-04-06T14:17:37;27.50;;;16.80;;
53281;SDS011;39167;52.794;6.892;2023-04-06T14:20:03;29.95;;;17.20;;
53281;SDS011;39167;52.794;6.892;2023-04-06T14:22:31;30.15;;;17.27;;
53281;SDS011;39167;52.794;6.892;2023-04-06T14:24:57;25.92;;;17.25;;
53281;SDS011;39167;52.794;6.892;2023-04-06T14:27:23;24.25;;;16.75;;
53281;SDS011;39167;52.794;6.892;2023-04-06T14:29:49;24.40;;;16.05;;
53281;SDS011;39167;52.794;6.892;2023-04-06T14:32:16;25.70;;;16.15;;
53281;SDS011;39167;52.794;6.892;2023-04-06T14:34:42;25.10;;;16.70;;
53281;SDS011;39167;52.794;6.892;2023-04-06T14:37:07;25.13;;;16.33;;